DAL1914 KSEA-MMSD
Flight info
| Callsign | DAL1914 |
|---|---|
| Flight time | N/A |
| Altitude | 35000 |
| Route | SUMMA2 SUMMA DCT LTJ DCT IMB DCT NEERO DCT GHABY DCT PGS DCT PICAH DCT VYLLA J92 DASVU/N0390F170 V4 ENEKO ENEKO1B |
| Aircraft | B738/M-SDE2E3FGHIRWXY/LB1 |
Departure
| Time | N/A |
|---|---|
| Airport | Seattle–Tacoma International Airport (KSEA) |
Arrival
| Time | 2026-04-29 20:54 |
|---|---|
| Airport | Los Cabos International Airport (MMSD) |
| Time | Latitude | Longitude | Altitude | Speed | Heading |
|---|---|---|---|---|---|
| 2026-04-29 20:29 | 25.10027 | -110.43130 | 34942 ft | 473 kts | 136° |
| 2026-04-29 20:29 | 25.07917 | -110.40332 | 34929 ft | 475 kts | 136° |
| 2026-04-29 20:30 | 25.03661 | -110.34752 | 34923 ft | 476 kts | 136° |
| 2026-04-29 20:30 | 24.99359 | -110.29200 | 34932 ft | 476 kts | 137° |
| 2026-04-29 20:31 | 24.95049 | -110.23679 | 34932 ft | 474 kts | 137° |
| 2026-04-29 20:31 | 24.90779 | -110.18218 | 34919 ft | 473 kts | 137° |
| 2026-04-29 20:32 | 24.86496 | -110.12744 | 34928 ft | 471 kts | 137° |
| 2026-04-29 20:32 | 24.82948 | -110.08213 | 34924 ft | 470 kts | 137° |
| 2026-04-29 20:33 | 24.77970 | -110.01863 | 34857 ft | 469 kts | 136° |
| 2026-04-29 20:33 | 24.75818 | -109.99123 | 34324 ft | 473 kts | 136° |
| 2026-04-29 20:33 | 24.73673 | -109.96391 | 33742 ft | 473 kts | 136° |
| 2026-04-29 20:34 | 24.71517 | -109.93647 | 33079 ft | 473 kts | 136° |
| 2026-04-29 20:34 | 24.69394 | -109.90946 | 32413 ft | 474 kts | 135° |
| 2026-04-29 20:34 | 24.67241 | -109.88207 | 31769 ft | 474 kts | 135° |
| 2026-04-29 20:34 | 24.65081 | -109.85462 | 31094 ft | 474 kts | 135° |
| 2026-04-29 20:35 | 24.62922 | -109.82719 | 30403 ft | 475 kts | 134° |
| 2026-04-29 20:35 | 24.60760 | -109.79975 | 29615 ft | 476 kts | 134° |
| 2026-04-29 20:35 | 24.58590 | -109.77221 | 28779 ft | 476 kts | 134° |
| 2026-04-29 20:35 | 24.56428 | -109.74478 | 27977 ft | 475 kts | 134° |
| 2026-04-29 20:36 | 24.54269 | -109.71742 | 27145 ft | 474 kts | 134° |
| 2026-04-29 20:36 | 24.52140 | -109.69045 | 26319 ft | 474 kts | 134° |
| 2026-04-29 20:36 | 24.49981 | -109.66312 | 25584 ft | 472 kts | 134° |
| 2026-04-29 20:36 | 24.47840 | -109.63602 | 24965 ft | 467 kts | 134° |
| 2026-04-29 20:37 | 24.45719 | -109.60918 | 24329 ft | 463 kts | 134° |
| 2026-04-29 20:37 | 24.43618 | -109.58262 | 23697 ft | 459 kts | 135° |
| 2026-04-29 20:37 | 24.41535 | -109.55631 | 22995 ft | 456 kts | 134° |
| 2026-04-29 20:37 | 24.39463 | -109.53016 | 22323 ft | 451 kts | 134° |
| 2026-04-29 20:38 | 24.37419 | -109.50437 | 21686 ft | 445 kts | 134° |
| 2026-04-29 20:38 | 24.35495 | -109.48012 | 21100 ft | 441 kts | 134° |
| 2026-04-29 20:38 | 24.33299 | -109.45735 | 20469 ft | 430 kts | 149° |
| 2026-04-29 20:38 | 24.30683 | -109.44374 | 19922 ft | 417 kts | 167° |
| 2026-04-29 20:39 | 24.27875 | -109.43829 | 19468 ft | 406 kts | 180° |
| 2026-04-29 20:39 | 24.25097 | -109.44049 | 19025 ft | 396 kts | 193° |
| 2026-04-29 20:39 | 24.22414 | -109.44711 | 18584 ft | 398 kts | 195° |
| 2026-04-29 20:39 | 24.19709 | -109.45439 | 18120 ft | 402 kts | 196° |
| 2026-04-29 20:40 | 24.17001 | -109.46175 | 17626 ft | 400 kts | 195° |
| 2026-04-29 20:40 | 24.14306 | -109.46894 | 17159 ft | 397 kts | 195° |
| 2026-04-29 20:40 | 24.11664 | -109.47585 | 16717 ft | 394 kts | 195° |
| 2026-04-29 20:40 | 24.08999 | -109.48273 | 16282 ft | 393 kts | 195° |
| 2026-04-29 20:41 | 24.06345 | -109.48952 | 15837 ft | 391 kts | 195° |
| 2026-04-29 20:41 | 24.03700 | -109.49627 | 15420 ft | 390 kts | 195° |
| 2026-04-29 20:41 | 24.01059 | -109.50300 | 14993 ft | 390 kts | 195° |
| 2026-04-29 20:41 | 23.98416 | -109.50973 | 14546 ft | 390 kts | 195° |
| 2026-04-29 20:42 | 23.95771 | -109.51647 | 14106 ft | 390 kts | 195° |
| 2026-04-29 20:42 | 23.93129 | -109.52319 | 13660 ft | 390 kts | 195° |
| 2026-04-29 20:42 | 23.90493 | -109.52999 | 13187 ft | 388 kts | 197° |
| 2026-04-29 20:42 | 23.87952 | -109.53821 | 12751 ft | 384 kts | 200° |
| 2026-04-29 20:43 | 23.85445 | -109.54749 | 12320 ft | 377 kts | 201° |
| 2026-04-29 20:43 | 23.82989 | -109.55694 | 11894 ft | 370 kts | 201° |
| 2026-04-29 20:43 | 23.80584 | -109.56617 | 11487 ft | 364 kts | 201° |
| 2026-04-29 20:43 | 23.78214 | -109.57518 | 11092 ft | 358 kts | 201° |
| 2026-04-29 20:44 | 23.75877 | -109.58398 | 10697 ft | 352 kts | 201° |
| 2026-04-29 20:44 | 23.73571 | -109.59258 | 10312 ft | 348 kts | 201° |
| 2026-04-29 20:44 | 23.71297 | -109.60098 | 9914 ft | 344 kts | 201° |
| 2026-04-29 20:44 | 23.69074 | -109.60919 | 9859 ft | 328 kts | 201° |
| 2026-04-29 20:45 | 23.66981 | -109.61690 | 9805 ft | 308 kts | 201° |
| 2026-04-29 20:45 | 23.65031 | -109.62408 | 9686 ft | 291 kts | 201° |
| 2026-04-29 20:45 | 23.63159 | -109.63098 | 9481 ft | 279 kts | 201° |
| 2026-04-29 20:45 | 23.61337 | -109.63770 | 9120 ft | 275 kts | 201° |
| 2026-04-29 20:46 | 23.59522 | -109.64442 | 8623 ft | 275 kts | 201° |
| 2026-04-29 20:46 | 23.57712 | -109.65109 | 8179 ft | 274 kts | 201° |
| 2026-04-29 20:46 | 23.55911 | -109.65771 | 7734 ft | 273 kts | 201° |
| 2026-04-29 20:46 | 23.54123 | -109.66430 | 7310 ft | 270 kts | 201° |
| 2026-04-29 20:47 | 23.52342 | -109.67086 | 6882 ft | 269 kts | 201° |
| 2026-04-29 20:47 | 23.50622 | -109.67718 | 6803 ft | 251 kts | 201° |
| 2026-04-29 20:47 | 23.49048 | -109.68295 | 6695 ft | 234 kts | 201° |
| 2026-04-29 20:47 | 23.48028 | -109.68671 | 6614 ft | 223 kts | 201° |
| 2026-04-29 20:48 | 23.46162 | -109.69357 | 6251 ft | 209 kts | 202° |
| 2026-04-29 20:48 | 23.44799 | -109.69855 | 5724 ft | 207 kts | 201° |
| 2026-04-29 20:48 | 23.43428 | -109.70360 | 5232 ft | 207 kts | 201° |
| 2026-04-29 20:48 | 23.42075 | -109.70860 | 4929 ft | 203 kts | 200° |
| 2026-04-29 20:49 | 23.40739 | -109.71353 | 4671 ft | 202 kts | 201° |
| 2026-04-29 20:49 | 23.39432 | -109.71843 | 4457 ft | 195 kts | 200° |
| 2026-04-29 20:49 | 23.38158 | -109.72304 | 4197 ft | 191 kts | 198° |
| 2026-04-29 20:49 | 23.36929 | -109.72741 | 3999 ft | 188 kts | 200° |
| 2026-04-29 20:50 | 23.35701 | -109.73193 | 3776 ft | 185 kts | 199° |
| 2026-04-29 20:50 | 23.34500 | -109.73634 | 3573 ft | 180 kts | 199° |
| 2026-04-29 20:50 | 23.33294 | -109.73955 | 3377 ft | 179 kts | 181° |
| 2026-04-29 20:50 | 23.32047 | -109.73913 | 3197 ft | 181 kts | 178° |
| 2026-04-29 20:51 | 23.30782 | -109.73830 | 3007 ft | 183 kts | 175° |
| 2026-04-29 20:51 | 23.29514 | -109.73701 | 2800 ft | 183 kts | 174° |
| 2026-04-29 20:51 | 23.28254 | -109.73560 | 2605 ft | 179 kts | 174° |
| 2026-04-29 20:51 | 23.27041 | -109.73422 | 2456 ft | 178 kts | 174° |
| 2026-04-29 20:52 | 23.25796 | -109.73280 | 2229 ft | 180 kts | 174° |
| 2026-04-29 20:52 | 23.24575 | -109.73139 | 1994 ft | 172 kts | 174° |
| 2026-04-29 20:52 | 23.23429 | -109.73010 | 1792 ft | 160 kts | 174° |
| 2026-04-29 20:52 | 23.22356 | -109.72887 | 1555 ft | 149 kts | 173° |
| 2026-04-29 20:53 | 23.21332 | -109.72772 | 1382 ft | 151 kts | 173° |
| 2026-04-29 20:53 | 23.20295 | -109.72652 | 1153 ft | 147 kts | 172° |
| 2026-04-29 20:53 | 23.19274 | -109.72533 | 963 ft | 150 kts | 173° |
| 2026-04-29 20:53 | 23.18257 | -109.72419 | 800 ft | 151 kts | 171° |
| 2026-04-29 20:54 | 23.16180 | -109.72178 | 412 ft | 146 kts | 171° |
| 2026-04-29 20:54 | 23.15161 | -109.72053 | 357 ft | 144 kts | 169° |
| 2026-04-29 20:54 | 23.14544 | -109.71992 | 344 ft | 29 kts | 176° |
| 2026-04-29 20:55 | 23.14461 | -109.71984 | 336 ft | 12 kts | 174° |
| 2026-04-29 20:55 | 23.14346 | -109.71972 | 333 ft | 21 kts | 176° |
| 2026-04-29 20:55 | 23.14201 | -109.71959 | 332 ft | 21 kts | 174° |
| 2026-04-29 20:55 | 23.14060 | -109.71944 | 329 ft | 20 kts | 172° |
| 2026-04-29 20:56 | 23.13930 | -109.71913 | 326 ft | 12 kts | 137° |
| 2026-04-29 20:56 | 23.13919 | -109.71831 | 328 ft | 11 kts | 86° |
| 2026-04-29 20:56 | 23.13944 | -109.71754 | 326 ft | 11 kts | 48° |
| 2026-04-29 20:56 | 23.14015 | -109.71734 | 327 ft | 11 kts | 355° |
| 2026-04-29 20:57 | 23.14088 | -109.71740 | 329 ft | 10 kts | 355° |
| 2026-04-29 20:57 | 23.14159 | -109.71747 | 331 ft | 10 kts | 354° |
| 2026-04-29 20:57 | 23.14234 | -109.71757 | 331 ft | 11 kts | 353° |
| 2026-04-29 20:57 | 23.14315 | -109.71768 | 333 ft | 12 kts | 353° |
| 2026-04-29 20:58 | 23.14411 | -109.71780 | 337 ft | 17 kts | 354° |
| 2026-04-29 20:58 | 23.14553 | -109.71793 | 338 ft | 24 kts | 355° |
| 2026-04-29 20:58 | 23.14739 | -109.71808 | 351 ft | 30 kts | 355° |
| 2026-04-29 20:58 | 23.14958 | -109.71840 | 355 ft | 33 kts | 353° |
| 2026-04-29 20:59 | 23.15184 | -109.71867 | 355 ft | 33 kts | 353° |
| 2026-04-29 20:59 | 23.15399 | -109.71893 | 362 ft | 28 kts | 356° |
| 2026-04-29 20:59 | 23.15528 | -109.71907 | 367 ft | 8 kts | 352° |
| 2026-04-29 20:59 | 23.15590 | -109.71903 | 367 ft | 10 kts | 19° |
| 2026-04-29 21:00 | 23.15633 | -109.71843 | 367 ft | 11 kts | 77° |
| 2026-04-29 21:00 | 23.15638 | -109.71792 | 369 ft | 5 kts | 83° |
| 2026-04-29 21:00 | 23.15640 | -109.71778 | 370 ft | 2 kts | 83° |
| 2026-04-29 21:00 | 23.15640 | -109.71773 | 371 ft | 0 kts | 83° |